18°C Temp
9°C Dewpoint
56% Humidity
Temperature
0 KM/H
MPH
KTS
Calm
Due North

Wind Speed
Clear
Conditions
Barometer 1017.92 (hPa) - 30.06 (in)
Visibility 6.2 (mi) - 10.0 (km)

Current Conditions
LGEL
Location Elefsis 77 km  (47.8 mi) from Sykia
Metar :LGEL 142050Z 00000KT CAVOK 18/09 Q1018
Monday 14 Oct 23:50

Airport
https://www.checkwx.com/
  Metar Aviation API Data Provided by https://www.checkwx.com/ PHP scripts by weather34.com ©2019